Terminal Aerodrome Forecast
Issued by NWS Boston, MA

Home | Current Version | Previous Version | Text Only | Print | Product List | Glossary On
Versions: 1 2 3 4 5 6 7 8 9 10 11 12 13 14 15 16 17 18 19 20 21 22
000
FTUS41 KBOX 212100 AAA
TAFPVD
TAF AMD
KPVD 212100Z 2121/2218 VRB03KT P6SM BKN200
     FM220500 VRB03KT P6SM OVC050
     FM221300 VRB03KT 6SM BR VCSH OVC015
     FM221600 VRB03KT 5SM -RA BR OVC010=

USA.gov is the U.S. government's official web portal to all federal, state and local government web resources and services.